Time;durP1;ratioP1;P1;durP2;ratioP2;P2;SDS_P1;SDS_P2;PMS_P1;PMS_P2;Temp;Humidity;BMP_temperature;BMP_pressure;BME280_temperature;BME280_humidity;BME280_pressure;Samples;Min_cycle;Max_cycle;Signal;HPM_P1;HPM_P2
2022/03/09 02:50:00;;;;;;;9.53;6.13;;;;;;;-2.61;54.90;95992.66;4714447;30;20323;-78
2022/03/09 02:53:40;;;;;;;9.83;5.80;;;;;;;-2.60;55.12;95986.66;4662288;30;20220;-79
2022/03/09 02:56:49;;;;;;;7.20;5.70;;;;;;;-2.45;55.54;95987.00;4650023;30;20585;-78
2022/03/09 02:59:58;;;;;;;8.37;5.47;;;;;;;-2.28;54.32;95987.16;4660618;30;20251;-78
2022/03/09 03:14:04;;;;;;;8.40;5.80;;;;;;;-2.23;54.35;95981.88;4591798;31;20500;-78
2022/03/09 03:32:50;;;;;;;7.00;5.53;;;;;;;-2.09;53.52;95994.91;3317063;26;20616;-78
2022/03/09 03:36:28;;;;;;;;;;;;;;;;;;;;;
2022/03/09 03:43:09;;;;;;;11.53;6.70;;;;;;;-2.11;53.60;95994.97;4821410;29;20701;-80
2022/03/09 03:46:22;;;;;;;7.87;6.10;;;;;;;-2.14;53.67;95999.34;4771964;29;20210;-76
2022/03/09 03:49:28;;;;;;;7.53;5.50;;;;;;;-2.24;53.77;96001.41;4785795;29;20207;-79
2022/03/09 03:52:32;;;;;;;12.37;5.77;;;;;;;-2.34;53.95;96015.38;4717473;30;20201;-79
2022/03/09 04:02:03;;;;;;;10.67;5.70;;;;;;;-2.83;55.59;96004.47;4731283;30;20250;-78
2022/03/09 04:05:15;;;;;;;9.50;6.20;;;;;;;-2.84;56.07;96005.38;4734637;30;20232;-78
2022/03/09 04:08:27;;;;;;;8.50;5.83;;;;;;;-2.78;56.62;96005.16;4749315;30;20595;-78
2022/03/09 04:10:52;;;;;;;8.87;6.07;;;;;;;-2.92;56.63;96013.25;4749292;30;20200;-80
2022/03/09 04:13:23;;;;;;;9.43;5.53;;;;;;;-3.07;57.00;96010.47;4748839;30;20370;-81
2022/03/09 04:16:06;;;;;;;7.27;5.87;;;;;;;-3.18;57.18;96006.59;4732374;30;20201;-78
2022/03/09 04:18:50;;;;;;;7.93;5.90;;;;;;;-3.26;57.24;96003.47;4759408;30;20215;-77
2022/03/09 04:21:20;;;;;;;10.73;6.03;;;;;;;-3.14;57.42;95995.44;4753584;29;20740;-77
2022/03/09 04:23:45;;;;;;;8.63;5.90;;;;;;;-3.25;57.86;95992.44;4782536;29;20229;-77
2022/03/09 04:26:11;;;;;;;8.40;6.50;;;;;;;-3.28;58.47;95995.06;4774576;29;20293;-78
2022/03/09 04:28:44;;;;;;;10.03;6.97;;;;;;;-3.34;58.64;96008.00;4823911;29;20218;-78
2022/03/09 04:31:18;;;;;;;9.57;6.23;;;;;;;-3.39;58.77;96009.84;4876004;29;20591;-78
2022/03/09 04:33:43;;;;;;;9.90;6.27;;;;;;;-3.34;58.60;96007.16;4845621;29;20212;-78
2022/03/09 04:36:14;;;;;;;10.03;6.73;;;;;;;-3.06;58.04;95999.41;4845274;29;20613;-78
2022/03/09 04:38:42;;;;;;;10.27;6.57;;;;;;;-2.98;57.72;95997.44;4876231;29;20637;-78
2022/03/09 04:41:08;;;;;;;10.37;6.37;;;;;;;-3.14;57.56;96012.38;4860719;29;20259;-78
2022/03/09 04:43:38;;;;;;;8.67;6.27;;;;;;;-3.26;57.82;96008.56;4874038;29;20229;-78
2022/03/09 04:46:12;;;;;;;10.67;7.10;;;;;;;-3.24;58.67;96009.34;4935090;29;20240;-79
2022/03/09 04:48:40;;;;;;;14.83;8.67;;;;;;;-3.33;58.90;96006.28;4938122;29;20177;-79
2022/03/09 04:51:06;;;;;;;12.93;8.20;;;;;;;-3.37;58.58;96008.09;4921069;29;20689;-79
2022/03/09 04:53:47;;;;;;;;;;;;;;;;;;;;;
2022/03/09 04:56:18;;;;;;;9.60;7.23;;;;;;;-3.47;59.25;96002.50;4932331;29;20209;-78
2022/03/09 04:59:16;;;;;;;13.53;9.67;;;;;;;-3.50;58.71;96004.31;4921830;29;20189;-78
2022/03/09 05:01:44;;;;;;;12.30;9.93;;;;;;;-3.53;59.35;96001.91;4938914;29;20197;-77
2022/03/09 05:04:12;;;;;;;9.60;7.37;;;;;;;-3.35;58.82;96005.53;4934895;29;20287;-77
2022/03/09 05:06:37;;;;;;;8.50;6.57;;;;;;;-3.36;58.08;96006.38;4929155;29;20265;-77
2022/03/09 05:09:08;;;;;;;9.07;6.03;;;;;;;-3.21;57.31;96005.84;4922240;29;20714;-76
2022/03/09 05:11:50;;;;;;;9.57;7.07;;;;;;;-3.19;57.35;96007.44;4922141;29;20194;-78
2022/03/09 05:14:15;;;;;;;10.87;6.77;;;;;;;-3.17;57.16;95999.78;4921303;29;20209;-77
2022/03/09 05:16:41;;;;;;;9.60;6.63;;;;;;;-3.15;56.84;96014.09;4947930;29;20189;-78
2022/03/09 05:19:06;;;;;;;10.50;6.30;;;;;;;-3.19;56.96;96016.78;4956058;29;20189;-78
2022/03/09 05:21:41;;;;;;;12.87;7.10;;;;;;;-3.24;57.29;96011.88;4920614;29;20697;-77
2022/03/09 05:24:19;;;;;;;11.77;6.90;;;;;;;-3.25;57.26;96012.75;4937149;29;20724;-77
2022/03/09 05:26:56;;;;;;;10.67;6.93;;;;;;;-3.11;56.50;96011.44;4936189;29;20262;-77
2022/03/09 05:29:50;;;;;;;;;;;;;;;;;;;;;
2022/03/09 05:32:29;;;;;;;12.03;8.20;;;;;;;-3.19;57.50;96014.25;4950098;29;20212;-78
2022/03/09 05:38:01;;;;;;;10.87;8.07;;;;;;;-3.37;57.45;96020.78;4933002;29;20203;-77
2022/03/09 05:40:35;;;;;;;11.60;7.47;;;;;;;-3.38;57.61;96021.66;4919374;29;20569;-77
2022/03/09 05:43:18;;;;;;;11.50;7.53;;;;;;;-3.29;57.42;96015.44;4937337;29;20230;-79
2022/03/09 05:46:13;;;;;;;11.97;7.27;;;;;;;-3.29;57.72;96023.88;4919605;29;20216;-77
2022/03/09 05:48:59;;;;;;;11.03;6.77;;;;;;;-3.35;57.77;96021.59;4929106;29;20185;-78
2022/03/09 05:51:27;;;;;;;12.10;7.70;;;;;;;-3.34;57.39;96038.47;4958376;28;20193;-77
2022/03/09 05:53:52;;;;;;;12.30;7.83;;;;;;;-3.42;57.99;96035.34;4947094;29;20207;-78
2022/03/09 05:56:38;;;;;;;11.47;7.93;;;;;;;-3.46;58.21;96038.88;4943879;29;20189;-79
2022/03/09 05:59:03;;;;;;;12.23;7.53;;;;;;;-3.34;58.63;96048.63;4948883;29;20207;-79
2022/03/09 06:01:29;;;;;;;13.17;8.43;;;;;;;-3.42;58.64;96045.53;4951378;28;20640;-79
2022/03/09 06:03:54;;;;;;;11.40;7.60;;;;;;;-3.39;58.87;96053.03;4962503;29;20228;-79
2022/03/09 06:06:19;;;;;;;9.70;7.33;;;;;;;-3.46;58.58;96051.56;4945032;29;20190;-79
2022/03/09 06:08:45;;;;;;;13.57;8.73;;;;;;;-3.44;58.57;96060.81;4963867;29;20209;-80
2022/03/09 06:11:10;;;;;;;11.93;7.30;;;;;;;-3.37;59.56;96061.41;4962248;28;20197;-78
2022/03/09 06:13:35;;;;;;;10.87;7.40;;;;;;;-3.36;59.08;96060.53;4943412;29;20205;-79
2022/03/09 06:16:01;;;;;;;12.30;7.60;;;;;;;-3.37;59.29;96060.59;4936764;29;20189;-78
2022/03/09 06:18:26;;;;;;;11.77;8.37;;;;;;;-3.39;59.59;96070.81;4946528;29;20197;-79
2022/03/09 06:20:51;;;;;;;10.60;7.27;;;;;;;-3.39;59.17;96069.97;4929017;29;20190;-78
2022/03/09 06:23:18;;;;;;;9.93;7.03;;;;;;;-3.42;59.48;96076.00;4961525;29;20213;-78
2022/03/09 06:25:43;;;;;;;12.13;7.13;;;;;;;-3.43;59.51;96077.69;4948820;29;20532;-78
2022/03/09 06:28:08;;;;;;;11.40;6.67;;;;;;;-3.39;59.18;96082.66;4978121;28;20196;-79
2022/03/09 06:30:34;;;;;;;11.90;7.23;;;;;;;-3.33;59.27;96085.84;4948098;29;20189;-79
2022/03/09 06:32:59;;;;;;;12.23;7.97;;;;;;;-3.26;59.23;96094.94;4972342;28;20217;-79
2022/03/09 06:35:24;;;;;;;14.30;7.93;;;;;;;-3.22;58.98;96093.94;4947416;29;20224;-79
2022/03/09 06:37:50;;;;;;;12.57;7.80;;;;;;;-3.15;59.27;96095.38;4941318;29;20658;-78
2022/03/09 06:40:15;;;;;;;11.40;7.70;;;;;;;-3.09;59.46;96096.91;4950199;29;20181;-79
2022/03/09 06:42:40;;;;;;;12.97;7.73;;;;;;;-2.97;59.06;96093.09;4929183;29;20198;-79
2022/03/09 06:45:06;;;;;;;12.77;7.93;;;;;;;-2.94;59.50;96091.28;4914330;29;20214;-79
2022/03/09 06:47:35;;;;;;;10.80;7.63;;;;;;;-2.89;59.40;96094.50;4940676;29;20186;-78
2022/03/09 06:50:00;;;;;;;12.37;7.57;;;;;;;-2.90;59.46;96092.84;4939628;29;20192;-80
2022/03/09 06:52:25;;;;;;;13.97;8.47;;;;;;;-2.83;59.50;96095.97;4922748;29;20253;-78
2022/03/09 06:54:51;;;;;;;14.07;8.07;;;;;;;-2.76;58.79;96099.16;4923885;29;20189;-80
2022/03/09 06:57:16;;;;;;;11.87;8.30;;;;;;;-2.58;57.71;96099.31;4926385;29;20182;-78
2022/03/09 06:59:44;;;;;;;11.43;8.00;;;;;;;-2.47;57.24;96098.09;4908946;29;20237;-78
2022/03/09 07:02:09;;;;;;;13.37;8.30;;;;;;;-2.37;55.98;96097.72;4920229;29;20174;-78
2022/03/09 07:04:34;;;;;;;13.97;7.70;;;;;;;-2.05;55.06;96100.78;4916632;29;20213;-78
2022/03/09 07:07:00;;;;;;;16.43;9.53;;;;;;;-2.00;55.13;96109.06;4928195;29;20189;-77
2022/03/09 07:09:25;;;;;;;13.33;8.83;;;;;;;-1.94;54.94;96106.31;4933060;29;20193;-77
2022/03/09 07:11:50;;;;;;;15.50;8.43;;;;;;;-1.80;54.36;96104.03;4951831;29;20201;-78
2022/03/09 07:14:16;;;;;;;15.87;9.20;;;;;;;-1.65;53.91;96102.63;4936111;29;20200;-79
2022/03/09 07:16:41;;;;;;;15.33;8.33;;;;;;;-1.58;53.03;96098.97;4919604;29;20220;-78
2022/03/09 07:19:06;;;;;;;10.93;7.83;;;;;;;-1.41;52.33;96111.03;4934480;29;20662;-76
2022/03/09 07:21:32;;;;;;;11.60;7.97;;;;;;;-1.29;52.14;96114.78;4931984;29;20295;-79
2022/03/09 07:23:57;;;;;;;13.27;7.57;;;;;;;-1.17;52.27;96119.38;4935247;29;20211;-79
2022/03/09 07:26:23;;;;;;;10.40;7.47;;;;;;;-1.03;52.16;96122.19;4921034;29;20196;-79
2022/03/09 07:28:48;;;;;;;13.90;8.30;;;;;;;-0.89;52.26;96126.72;4922592;29;20182;-79
2022/03/09 07:31:14;;;;;;;11.37;8.07;;;;;;;-0.71;52.48;96123.38;4936490;29;20907;-79
2022/03/09 07:33:39;;;;;;;12.80;8.33;;;;;;;-0.58;53.17;96126.25;4922358;29;20203;-78
2022/03/09 07:36:04;;;;;;;11.57;7.77;;;;;;;-0.43;53.50;96130.69;4906177;29;20195;-77
2022/03/09 07:38:32;;;;;;;14.40;9.70;;;;;;;-0.37;53.42;96122.75;4936423;29;20182;-79
2022/03/09 07:40:57;;;;;;;13.90;10.30;;;;;;;-0.28;53.51;96126.63;4903881;29;20184;-78
2022/03/09 07:43:23;;;;;;;11.77;9.17;;;;;;;-0.12;52.97;96130.16;4919655;29;20230;-79
2022/03/09 07:45:48;;;;;;;11.40;8.53;;;;;;;-0.01;52.95;96135.59;4908302;29;20311;-79
2022/03/09 07:48:14;;;;;;;11.30;8.43;;;;;;;0.08;52.62;96136.91;4934826;29;20274;-79
2022/03/09 07:50:39;;;;;;;11.53;7.97;;;;;;;0.21;52.51;96135.47;4919457;29;20184;-78
2022/03/09 07:53:05;;;;;;;10.03;6.47;;;;;;;0.35;52.09;96139.91;4901902;29;20201;-78
2022/03/09 07:55:31;;;;;;;10.97;6.90;;;;;;;0.44;49.83;96144.63;4928814;29;20187;-79
2022/03/09 07:57:56;;;;;;;9.77;6.77;;;;;;;0.59;47.06;96145.63;4937756;29;20200;-81
2022/03/09 08:00:21;;;;;;;8.80;6.23;;;;;;;0.66;45.87;96157.22;4953300;29;20264;-77
2022/03/09 08:02:46;;;;;;;9.90;6.20;;;;;;;0.81;44.05;96151.38;4953942;29;20670;-78
2022/03/09 08:05:12;;;;;;;10.07;6.10;;;;;;;0.95;44.48;96150.69;4936924;29;20215;-78
2022/03/09 08:07:37;;;;;;;9.57;6.87;;;;;;;0.94;44.87;96156.72;4937155;29;20604;-79
2022/03/09 08:10:04;;;;;;;10.73;6.67;;;;;;;1.00;44.25;96158.97;4949803;29;20200;-77
2022/03/09 08:12:30;;;;;;;9.93;6.63;;;;;;;1.11;44.76;96154.16;4952658;29;20188;-76
2022/03/09 08:14:55;;;;;;;11.43;6.67;;;;;;;1.21;44.64;96156.25;4920881;29;20196;-78
2022/03/09 08:17:20;;;;;;;8.67;6.90;;;;;;;1.34;44.30;96149.66;4954485;29;20184;-77
2022/03/09 08:19:45;;;;;;;11.30;6.70;;;;;;;1.41;44.17;96150.97;4936582;29;20642;-79
2022/03/09 08:22:11;;;;;;;10.50;6.87;;;;;;;1.49;43.73;96159.09;4904387;29;20178;-82
2022/03/09 08:24:36;;;;;;;10.27;6.77;;;;;;;1.61;43.77;96166.16;4906434;29;20287;-81
2022/03/09 08:27:02;;;;;;;9.47;6.97;;;;;;;1.69;43.61;96158.94;4957603;28;20231;-78
2022/03/09 08:29:28;;;;;;;11.93;7.40;;;;;;;1.72;43.72;96162.22;4950951;28;20184;-78
2022/03/09 08:31:53;;;;;;;10.60;6.87;;;;;;;1.67;43.72;96163.28;4952722;29;20236;-78
2022/03/09 08:34:18;;;;;;;10.90;8.03;;;;;;;1.62;43.21;96164.44;4963035;29;20200;-80
2022/03/09 08:36:44;;;;;;;8.70;7.00;;;;;;;1.77;42.29;96167.94;4929397;29;20193;-78
2022/03/09 08:39:09;;;;;;;13.13;7.60;;;;;;;1.86;41.52;96168.31;4930160;29;20661;-78
2022/03/09 08:41:36;;;;;;;11.07;7.67;;;;;;;2.04;40.55;96168.25;4963124;28;20685;-78
2022/03/09 08:44:01;;;;;;;10.63;7.70;;;;;;;2.09;41.05;96166.25;4943316;29;20288;-79
2022/03/09 08:46:26;;;;;;;9.63;6.97;;;;;;;2.23;40.50;96168.94;4932708;29;20730;-80
2022/03/09 08:48:52;;;;;;;13.10;7.43;;;;;;;2.34;40.41;96174.31;4908470;29;20194;-80
2022/03/09 08:51:20;;;;;;;10.90;6.67;;;;;;;2.42;40.39;96164.47;4941931;29;20217;-81
2022/03/09 08:53:45;;;;;;;12.27;8.57;;;;;;;2.71;42.31;96162.03;4908821;29;20554;-79
2022/03/09 08:56:10;;;;;;;14.07;9.57;;;;;;;2.93;43.66;96177.91;4930269;29;20189;-79
2022/03/09 08:58:36;;;;;;;12.57;9.53;;;;;;;3.13;42.54;96167.34;4942488;29;20255;-79
2022/03/09 09:01:03;;;;;;;11.93;8.20;;;;;;;3.31;40.96;96172.34;4941018;29;20180;-79
2022/03/09 09:03:28;;;;;;;14.10;8.67;;;;;;;3.38;40.61;96165.94;4942387;29;20201;-79
2022/03/09 09:05:53;;;;;;;13.23;9.93;;;;;;;3.52;42.31;96160.81;4939795;29;20237;-79
2022/03/09 09:08:19;;;;;;;16.20;10.07;;;;;;;3.62;41.51;96163.66;4908463;29;20205;-79
2022/03/09 09:10:44;;;;;;;15.63;10.90;;;;;;;3.76;40.62;96161.13;4925921;29;20181;-77
2022/03/09 09:13:11;;;;;;;18.10;11.07;;;;;;;3.89;40.92;96164.63;4952005;28;20289;-79
2022/03/09 09:15:37;;;;;;;15.17;10.63;;;;;;;4.01;41.19;96170.75;4943017;29;20200;-81
2022/03/09 09:18:05;;;;;;;16.17;9.57;;;;;;;4.03;40.66;96166.34;4937147;29;20236;-81
2022/03/09 09:20:31;;;;;;;16.57;10.80;;;;;;;4.09;40.87;96176.25;4945438;29;20647;-81
2022/03/09 09:22:57;;;;;;;17.50;10.80;;;;;;;4.06;40.97;96176.44;4936119;29;20717;-80
2022/03/09 09:25:24;;;;;;;13.43;9.03;;;;;;;4.09;40.14;96171.13;4941318;29;20209;-81
2022/03/09 09:27:50;;;;;;;14.93;10.30;;;;;;;4.15;40.83;96170.75;4943524;29;20174;-80
2022/03/09 09:30:16;;;;;;;19.33;10.10;;;;;;;4.32;41.34;96167.13;4939632;29;20188;-80
2022/03/09 09:32:41;;;;;;;15.20;9.97;;;;;;;4.43;40.21;96166.50;4925524;29;20292;-77
2022/03/09 09:35:07;;;;;;;12.87;8.97;;;;;;;4.36;39.19;96162.66;4925825;29;20714;-78
2022/03/09 09:37:32;;;;;;;13.00;9.13;;;;;;;4.48;40.70;96164.44;4922397;29;20214;-78
2022/03/09 09:39:57;;;;;;;14.63;9.20;;;;;;;4.54;39.27;96169.22;4937857;29;20249;-78
2022/03/09 09:42:31;;;;;;;12.93;9.17;;;;;;;4.51;39.03;96162.53;4939977;29;20666;-79
2022/03/09 09:45:00;;;;;;;13.73;9.00;;;;;;;4.48;39.23;96156.72;4941726;29;20211;-79
2022/03/09 09:47:28;;;;;;;15.40;9.47;;;;;;;4.52;38.52;96165.91;4958862;29;20699;-78
2022/03/09 09:49:56;;;;;;;12.97;8.73;;;;;;;4.69;38.76;96159.72;4942915;29;20651;-79
2022/03/09 09:52:25;;;;;;;12.50;8.23;;;;;;;4.87;38.13;96152.59;4927742;29;20188;-78
2022/03/09 09:54:52;;;;;;;14.30;8.80;;;;;;;4.91;36.97;96164.31;4957320;29;20175;-78
2022/03/09 09:57:18;;;;;;;12.73;8.13;;;;;;;4.76;37.01;96158.38;4957530;28;20192;-79
2022/03/09 09:59:44;;;;;;;12.30;9.07;;;;;;;4.61;37.79;96157.63;4938928;29;20273;-79
2022/03/09 10:02:09;;;;;;;14.80;8.43;;;;;;;4.91;36.83;96154.03;4924556;29;20178;-79
2022/03/09 10:04:35;;;;;;;13.80;8.73;;;;;;;4.95;36.87;96150.34;4926859;29;20642;-79
2022/03/09 10:07:00;;;;;;;14.67;9.80;;;;;;;5.18;37.15;96148.84;4937159;29;20177;-79
2022/03/09 10:09:34;;;;;;;15.47;9.13;;;;;;;5.28;37.21;96153.28;4932894;29;20205;-80
2022/03/09 10:11:59;;;;;;;13.63;9.30;;;;;;;5.39;36.80;96137.97;4919510;29;20185;-79
2022/03/09 10:14:43;;;;;;;12.93;9.37;;;;;;;5.46;35.98;96147.84;4947874;29;20218;-78
2022/03/09 10:17:11;;;;;;;12.10;8.77;;;;;;;5.55;36.78;96144.66;4937359;29;20669;-78
2022/03/09 10:19:39;;;;;;;10.87;8.80;;;;;;;5.67;36.17;96149.00;4923644;29;20207;-79
2022/03/09 10:22:31;;;;;;;14.50;8.50;;;;;;;5.72;34.94;96154.66;4931058;29;20213;-79
2022/03/09 10:24:59;;;;;;;11.93;8.27;;;;;;;5.88;35.17;96149.31;4904268;29;20296;-81
2022/03/09 10:27:51;;;;;;;16.07;8.67;;;;;;;6.00;34.38;96151.06;4921015;29;20668;-81
2022/03/09 10:30:18;;;;;;;14.90;8.33;;;;;;;5.94;34.13;96161.81;4919508;29;20279;-80
2022/03/09 10:32:45;;;;;;;9.43;7.63;;;;;;;6.00;34.62;96153.66;4930776;29;20236;-79
2022/03/09 10:35:13;;;;;;;11.03;7.80;;;;;;;6.01;32.29;96157.91;4924469;29;20241;-80
2022/03/09 10:37:39;;;;;;;9.50;7.50;;;;;;;6.11;32.38;96158.09;4920613;29;20596;-79
2022/03/09 10:40:19;;;;;;;10.10;7.43;;;;;;;6.16;31.42;96159.41;4919422;29;20261;-79
2022/03/09 10:42:45;;;;;;;9.27;7.47;;;;;;;6.30;31.67;96158.47;4902963;29;20709;-79
2022/03/09 10:45:11;;;;;;;9.87;7.27;;;;;;;6.42;32.08;96160.19;4919630;29;20209;-80
2022/03/09 10:47:45;;;;;;;11.63;7.30;;;;;;;6.51;31.96;96156.97;4920435;29;20555;-80
2022/03/09 10:50:20;;;;;;;11.07;8.07;;;;;;;6.34;30.99;96169.38;4918288;29;20174;-80
2022/03/09 10:52:57;;;;;;;8.13;7.13;;;;;;;6.38;31.90;96165.69;4918693;29;20206;-79
2022/03/09 10:55:25;;;;;;;10.20;7.97;;;;;;;6.50;32.05;96165.63;4937546;29;20181;-80
2022/03/09 10:57:52;;;;;;;11.70;9.13;;;;;;;6.58;31.43;96170.25;4920421;29;20213;-79
2022/03/09 11:00:46;;;;;;;10.13;7.93;;;;;;;6.67;31.08;96168.78;4919644;29;20221;-80
2022/03/09 11:03:17;;;;;;;11.30;7.63;;;;;;;6.59;31.09;96168.50;4920537;29;20292;-80
2022/03/09 11:06:02;;;;;;;9.97;7.70;;;;;;;6.68;30.85;96170.44;4937824;29;20217;-79
2022/03/09 11:08:34;;;;;;;13.83;8.37;;;;;;;6.72;30.62;96164.97;4936174;29;20197;-79
2022/03/09 11:10:59;;;;;;;10.70;7.90;;;;;;;6.85;30.67;96169.22;4938182;29;20176;-80
2022/03/09 11:13:26;;;;;;;12.10;8.43;;;;;;;6.83;29.65;96156.44;4936664;29;20213;-79
2022/03/09 11:15:53;;;;;;;21.33;14.00;;;;;;;6.79;29.46;96158.41;4922370;29;20181;-80
2022/03/09 11:18:22;;;;;;;19.13;12.37;;;;;;;6.87;29.46;96152.69;4936925;29;20180;-80
2022/03/09 11:20:48;;;;;;;14.23;10.03;;;;;;;6.82;31.79;96159.97;4938415;29;20181;-81
2022/03/09 11:23:15;;;;;;;11.83;8.73;;;;;;;6.82;31.18;96149.63;4937280;28;20292;-81
2022/03/09 11:25:50;;;;;;;13.27;8.97;;;;;;;7.04;31.59;96154.06;4953388;29;20584;-80
2022/03/09 11:28:23;;;;;;;14.80;10.07;;;;;;;7.15;31.45;96155.84;4938022;29;20287;-81
2022/03/09 11:30:54;;;;;;;16.00;10.57;;;;;;;7.02;31.25;96161.09;4935911;29;20181;-80
2022/03/09 11:33:41;;;;;;;17.27;10.50;;;;;;;6.82;31.08;96150.47;4921637;29;20221;-79
2022/03/09 11:36:29;;;;;;;14.50;10.57;;;;;;;7.18;31.48;96155.66;4941475;29;20186;-79
2022/03/09 11:39:15;;;;;;;15.27;10.57;;;;;;;6.98;31.52;96165.69;4934319;29;20725;-79
2022/03/09 11:41:41;;;;;;;15.00;10.03;;;;;;;7.00;31.94;96162.97;4933310;29;20359;-80
2022/03/09 11:44:18;;;;;;;16.43;11.60;;;;;;;6.96;31.78;96171.88;4920523;29;20209;-79
2022/03/09 11:46:59;;;;;;;14.70;10.73;;;;;;;7.09;31.61;96173.47;4954906;29;20200;-79
2022/03/09 11:49:54;;;;;;;17.50;10.03;;;;;;;7.18;31.81;96176.31;4935775;29;20180;-78
2022/03/09 11:52:23;;;;;;;14.83;10.47;;;;;;;7.22;32.08;96168.22;4911141;29;20193;-79
2022/03/09 11:54:58;;;;;;;14.33;10.17;;;;;;;7.28;31.80;96164.38;4949126;29;20182;-80
2022/03/09 11:57:26;;;;;;;17.97;10.23;;;;;;;7.24;32.20;96160.34;4902205;29;20177;-80
2022/03/09 12:00:00;;;;;;;20.77;10.07;;;;;;;7.34;32.48;96156.19;4917973;29;20201;-79
2022/03/09 12:02:39;;;;;;;15.47;10.70;;;;;;;7.47;31.79;96162.09;4934560;29;20173;-78
2022/03/09 12:05:05;;;;;;;17.67;10.33;;;;;;;7.39;31.41;96156.66;4936219;29;20213;-84
2022/03/09 12:07:30;;;;;;;19.37;9.87;;;;;;;7.51;31.94;96153.19;4928826;29;20682;-83
2022/03/09 12:10:06;;;;;;;22.53;11.23;;;;;;;7.33;31.58;96160.53;4935986;29;20194;-80
2022/03/09 12:12:33;;;;;;;15.97;9.90;;;;;;;7.56;32.35;96155.41;4968447;28;20185;-80
2022/03/09 12:15:09;;;;;;;20.93;10.93;;;;;;;7.67;31.95;96152.84;4936555;29;20479;-80
2022/03/09 12:17:47;;;;;;;18.80;11.30;;;;;;;7.65;31.34;96159.88;4918310;29;20566;-81
2022/03/09 12:20:27;;;;;;;16.33;10.27;;;;;;;7.56;31.56;96150.25;4919181;29;20186;-80
2022/03/09 12:22:55;;;;;;;13.00;10.40;;;;;;;7.77;30.88;96148.63;4917287;29;20205;-80
2022/03/09 12:25:43;;;;;;;14.97;9.90;;;;;;;7.71;30.28;96154.28;4936085;29;20225;-80
2022/03/09 12:28:32;;;;;;;14.60;10.20;;;;;;;7.79;30.79;96151.13;4952613;28;20181;-79
2022/03/09 12:31:03;;;;;;;14.33;10.50;;;;;;;7.83;30.53;96148.16;4961240;28;20202;-80
2022/03/09 12:33:39;;;;;;;14.30;10.40;;;;;;;7.73;30.27;96148.97;4955868;28;20272;-79
2022/03/09 12:36:16;;;;;;;14.63;10.17;;;;;;;8.00;30.12;96146.88;4935575;29;20189;-80
2022/03/09 12:38:50;;;;;;;14.67;11.33;;;;;;;7.97;30.27;96156.66;4919931;29;20187;-79
2022/03/09 12:41:24;;;;;;;14.73;10.57;;;;;;;8.01;30.13;96150.28;4935715;29;20272;-80
2022/03/09 12:43:52;;;;;;;17.00;11.07;;;;;;;8.08;30.01;96141.94;4935082;29;20213;-79
2022/03/09 12:46:17;;;;;;;18.23;10.53;;;;;;;8.17;30.67;96150.78;4936512;29;20185;-79
2022/03/09 12:48:43;;;;;;;16.47;10.47;;;;;;;8.11;30.47;96151.22;4926923;29;20182;-79
2022/03/09 12:51:08;;;;;;;16.47;11.17;;;;;;;8.16;29.55;96151.72;4932460;29;20182;-80
2022/03/09 12:53:34;;;;;;;16.67;11.27;;;;;;;7.95;29.67;96151.56;4941508;29;20228;-79
2022/03/09 12:56:13;;;;;;;15.30;10.97;;;;;;;8.17;29.05;96151.59;4935838;29;20205;-80
2022/03/09 12:58:39;;;;;;;14.37;10.20;;;;;;;8.18;29.27;96145.47;4923659;29;20273;-79
2022/03/09 13:01:05;;;;;;;15.90;11.13;;;;;;;8.00;29.63;96149.47;4926509;29;20265;-78
2022/03/09 13:03:31;;;;;;;16.37;11.10;;;;;;;8.11;29.87;96146.88;4934209;29;20208;-79
2022/03/09 13:05:56;;;;;;;17.20;11.60;;;;;;;8.29;29.64;96151.56;4935304;29;20181;-79
2022/03/09 13:08:22;;;;;;;16.77;10.97;;;;;;;8.39;29.29;96140.44;4935355;29;20189;-80
2022/03/09 13:10:51;;;;;;;18.67;11.80;;;;;;;8.29;29.95;96149.00;4919502;28;20220;-79
2022/03/09 13:13:16;;;;;;;17.17;11.37;;;;;;;8.46;29.56;96140.78;4935843;29;20260;-77
2022/03/09 13:15:48;;;;;;;17.77;12.43;;;;;;;8.49;30.00;96140.56;4921690;29;20189;-79
2022/03/09 13:18:33;;;;;;;18.13;11.37;;;;;;;8.47;29.02;96147.59;4939375;29;20200;-78
2022/03/09 13:21:00;;;;;;;18.60;11.37;;;;;;;8.44;29.49;96140.06;4956125;28;20264;-79
2022/03/09 13:23:35;;;;;;;18.13;11.90;;;;;;;8.34;30.14;96139.13;4937632;29;20594;-79
2022/03/09 13:26:19;;;;;;;22.83;13.30;;;;;;;8.43;29.89;96138.44;4923496;29;20189;-79
2022/03/09 13:28:48;;;;;;;16.97;11.43;;;;;;;8.44;29.95;96140.91;4961723;28;20276;-78
2022/03/09 13:31:17;;;;;;;17.60;11.47;;;;;;;8.46;29.67;96140.78;4932087;29;20209;-79
2022/03/09 13:33:43;;;;;;;16.87;11.73;;;;;;;8.58;29.59;96134.66;4931710;29;20230;-78
2022/03/09 13:36:14;;;;;;;18.63;11.83;;;;;;;8.54;29.77;96138.41;4946184;29;20177;-78
2022/03/09 13:38:41;;;;;;;15.90;11.27;;;;;;;8.48;29.19;96128.53;4941647;29;20178;-79
2022/03/09 13:41:08;;;;;;;18.10;12.07;;;;;;;8.39;30.26;96127.50;4928772;29;20253;-79
2022/03/09 13:43:37;;;;;;;16.67;11.30;;;;;;;8.70;29.69;96123.31;4947629;29;20204;-78
2022/03/09 13:46:17;;;;;;;17.67;11.83;;;;;;;8.71;29.13;96119.78;4945677;29;20561;-81
2022/03/09 13:48:42;;;;;;;19.17;11.73;;;;;;;8.82;28.90;96124.09;4944292;28;20708;-81
2022/03/09 13:51:08;;;;;;;16.47;12.40;;;;;;;8.76;29.47;96122.84;4932791;29;20185;-81
2022/03/09 13:53:35;;;;;;;19.50;12.77;;;;;;;8.74;29.08;96124.69;4933344;29;20209;-80
2022/03/09 13:56:15;;;;;;;18.37;11.80;;;;;;;8.70;28.99;96123.31;4925737;29;20182;-80
2022/03/09 13:58:41;;;;;;;18.80;12.80;;;;;;;8.64;29.12;96123.78;4926964;29;20271;-81
2022/03/09 14:01:08;;;;;;;18.67;12.03;;;;;;;8.75;29.86;96115.19;4932037;29;20228;-80
2022/03/09 14:03:49;;;;;;;17.80;12.23;;;;;;;8.64;29.42;96113.44;4948097;29;20211;-80
2022/03/09 14:06:19;;;;;;;17.87;12.00;;;;;;;8.90;29.12;96110.53;4908318;29;20215;-80
2022/03/09 14:08:46;;;;;;;17.23;12.17;;;;;;;8.72;29.18;96111.06;4954918;29;20181;-80
2022/03/09 14:11:21;;;;;;;17.70;12.43;;;;;;;8.67;29.67;96110.63;4930513;29;20601;-80
2022/03/09 14:14:08;;;;;;;18.07;11.73;;;;;;;8.74;29.01;96109.16;4917833;29;20220;-79
2022/03/09 14:16:41;;;;;;;17.17;11.70;;;;;;;8.76;29.79;96101.28;4924165;29;20222;-78
2022/03/09 14:19:09;;;;;;;17.00;11.53;;;;;;;8.96;29.41;96112.63;4938239;29;20240;-79
2022/03/09 14:21:35;;;;;;;18.23;12.33;;;;;;;9.00;28.88;96106.25;4925824;29;20253;-78
2022/03/09 14:24:01;;;;;;;23.20;12.50;;;;;;;9.04;29.03;96111.06;4911204;29;20213;-80
2022/03/09 14:26:27;;;;;;;22.07;13.30;;;;;;;8.97;28.79;96109.91;4938025;29;20185;-80
2022/03/09 14:28:53;;;;;;;20.37;12.20;;;;;;;9.06;29.32;96098.00;4937640;29;20662;-80
2022/03/09 14:31:20;;;;;;;19.83;12.30;;;;;;;9.19;28.65;96102.97;4929246;29;20694;-79
2022/03/09 14:33:45;;;;;;;16.13;11.53;;;;;;;9.21;29.44;96101.09;4932978;29;20217;-78
2022/03/09 14:36:11;;;;;;;21.67;12.60;;;;;;;9.24;29.28;96096.47;4937932;29;20193;-79
2022/03/09 14:38:40;;;;;;;15.83;11.27;;;;;;;9.16;29.48;96092.88;4915730;29;20185;-79
2022/03/09 14:41:07;;;;;;;20.13;13.87;;;;;;;9.19;28.79;96092.63;4946923;29;20194;-80
2022/03/09 14:43:32;;;;;;;18.50;13.20;;;;;;;9.26;28.33;96089.41;4937124;29;20301;-79
2022/03/09 14:45:57;;;;;;;16.77;12.00;;;;;;;9.32;28.77;96086.31;4923968;29;20276;-79
2022/03/09 14:48:22;;;;;;;17.60;11.63;;;;;;;9.45;28.91;96078.31;4940099;29;20195;-79
2022/03/09 14:50:48;;;;;;;20.23;12.80;;;;;;;9.22;28.79;96069.88;4932813;29;20186;-79
2022/03/09 14:53:13;;;;;;;17.43;12.40;;;;;;;9.25;29.18;96072.22;4928804;29;20264;-80
2022/03/09 14:55:39;;;;;;;19.03;11.83;;;;;;;9.18;29.00;96071.06;4926832;29;20178;-79
2022/03/09 14:58:04;;;;;;;16.23;11.77;;;;;;;9.25;29.75;96073.97;4935205;29;20189;-80
2022/03/09 15:00:29;;;;;;;17.07;12.80;;;;;;;9.36;29.10;96066.13;4935007;29;20677;-79
2022/03/09 15:02:55;;;;;;;20.73;11.93;;;;;;;9.42;28.79;96065.63;4927328;29;20206;-79
2022/03/09 15:05:20;;;;;;;18.80;12.07;;;;;;;9.46;29.01;96074.81;4929051;29;20212;-79
2022/03/09 15:07:45;;;;;;;18.07;13.00;;;;;;;9.44;29.56;96073.28;4925471;29;20189;-80
2022/03/09 15:10:11;;;;;;;19.67;12.27;;;;;;;9.34;29.22;96066.25;4919211;29;20649;-80
2022/03/09 15:12:36;;;;;;;18.90;13.63;;;;;;;9.29;29.04;96071.03;4936348;29;20209;-78
2022/03/09 15:15:04;;;;;;;19.77;12.77;;;;;;;9.34;28.48;96068.03;4932104;29;20186;-80
2022/03/09 15:17:30;;;;;;;19.57;13.23;;;;;;;9.24;29.20;96070.56;4936511;29;20252;-79
2022/03/09 15:19:55;;;;;;;17.20;12.50;;;;;;;9.25;28.82;96077.38;4923815;29;20190;-80